Asbury, Iowa
Current Conditions -  °F | °C
As of 8:53 AM on Saturday 01 Nov 2014 (Local Time) from KDBQ Reporting Station
Clear Clear  
Wind Chill: 22°   Ceiling: Unl
Heat Index: 28°   Visibility: 10mi
Dew Point: 21°   Wind: 6mph
Humidity: 75%   Direction: 60°ENE
Pressure: 30.48"   Gusts: NA
Location:  42.522°N, 90.7782°W
Report Text: KDBQ 011353Z 06005KT 10SM CLR M02/M06 A3048 RMK AO2 SLP334 T10221061
Loading
Personal Weather Stations






























Interactive Weather Map
Tropical Storm Tracking
New forecast layout! Learn more

10-Day Weather Forecast

Advertisements
Track Severe Weather on mobile